Time;durP1;ratioP1;P1;durP2;ratioP2;P2;SDS_P1;SDS_P2;PMS_P1;PMS_P2;Temp;Humidity;BMP_temperature;BMP_pressure;BME280_temperature;BME280_humidity;BME280_pressure;Samples;Min_cycle;Max_cycle;Signal;HPM_P1;HPM_P2
2021/04/29 00:02:14;;;;;;;14.88;8.05;;;;;;;9.52;88.86;100248.38;5057333;28;20111;-79
2021/04/29 00:04:39;;;;;;;17.17;8.48;;;;;;;9.51;88.63;100241.41;5063230;28;20059;-79
2021/04/29 00:07:06;;;;;;;11.55;7.15;;;;;;;9.62;88.25;100229.47;5060244;28;20032;-79
2021/04/29 00:09:32;;;;;;;11.27;7.47;;;;;;;9.58;88.91;100215.56;5057545;28;20107;-79
2021/04/29 00:11:57;;;;;;;12.23;7.75;;;;;;;9.53;89.42;100220.22;5063605;28;20036;-79
2021/04/29 00:14:22;;;;;;;12.43;8.77;;;;;;;9.53;90.43;100213.16;5059091;28;20036;-79
2021/04/29 00:16:48;;;;;;;18.30;10.02;;;;;;;9.50;91.15;100204.56;5062627;28;20024;-78
2021/04/29 00:19:13;;;;;;;17.40;8.45;;;;;;;9.46;92.59;100205.63;5065825;28;20049;-78
2021/04/29 00:21:38;;;;;;;10.73;7.78;;;;;;;9.45;93.54;100204.78;5060213;28;20020;-78
2021/04/29 00:24:05;;;;;;;16.08;9.52;;;;;;;9.45;94.07;100207.41;5063734;28;20025;-78
2021/04/29 00:26:30;;;;;;;11.80;7.80;;;;;;;9.51;94.54;100203.63;5062264;28;20498;-78
2021/04/29 00:28:56;;;;;;;13.85;8.27;;;;;;;9.46;93.68;100190.66;5057574;28;20035;-77
2021/04/29 00:31:22;;;;;;;19.50;9.43;;;;;;;9.49;93.65;100193.16;5059707;28;20417;-77
2021/04/29 00:33:47;;;;;;;17.17;9.40;;;;;;;9.49;93.69;100187.88;5066635;28;20031;-78
2021/04/29 00:36:12;;;;;;;13.52;8.00;;;;;;;9.44;93.51;100196.94;5059619;28;20028;-78
2021/04/29 00:38:38;;;;;;;11.23;7.57;;;;;;;9.55;93.45;100203.41;5063819;28;20473;-78
2021/04/29 00:41:05;;;;;;;18.98;8.02;;;;;;;9.47;95.12;100207.34;5057690;28;20029;-79
2021/04/29 00:43:32;;;;;;;15.18;9.27;;;;;;;9.45;96.58;100222.41;5057285;28;20440;-78
2021/04/29 00:45:57;;;;;;;19.23;10.00;;;;;;;9.43;98.43;100233.00;5064420;28;20091;-79
2021/04/29 00:48:23;;;;;;;13.85;9.13;;;;;;;9.44;100.00;100252.31;5064720;28;20041;-78
2021/04/29 00:50:50;;;;;;;21.38;8.15;;;;;;;9.45;100.00;100254.91;5059681;28;20021;-78
2021/04/29 00:53:15;;;;;;;14.50;9.45;;;;;;;9.30;100.00;100272.31;5057318;28;20029;-79
2021/04/29 00:55:40;;;;;;;15.00;8.23;;;;;;;9.35;100.00;100277.38;5058883;28;20071;-78
2021/04/29 00:58:06;;;;;;;14.27;9.18;;;;;;;9.30;100.00;100285.50;5055183;28;20033;-78
2021/04/29 01:00:31;;;;;;;13.05;8.30;;;;;;;9.31;100.00;100289.84;5063545;28;20056;-78
2021/04/29 01:03:03;;;;;;;15.25;9.05;;;;;;;9.26;100.00;100299.75;5057121;28;20065;-77
2021/04/29 01:05:33;;;;;;;14.93;9.43;;;;;;;9.13;100.00;100308.31;5052545;28;20037;-78
2021/04/29 01:08:17;;;;;;;13.85;9.60;;;;;;;9.07;100.00;100291.84;5058939;28;20041;-78
2021/04/29 01:11:05;;;;;;;15.48;10.15;;;;;;;8.95;100.00;100284.53;5054818;28;20532;-78
2021/04/29 01:13:35;;;;;;;16.60;9.02;;;;;;;8.94;100.00;100282.84;5057688;28;20028;-78
2021/04/29 01:16:01;;;;;;;15.77;8.48;;;;;;;8.92;100.00;100276.75;5060291;28;20064;-77
2021/04/29 01:18:26;;;;;;;13.95;8.43;;;;;;;8.88;100.00;100277.81;5058462;28;20052;-78
2021/04/29 01:21:05;;;;;;;26.30;10.10;;;;;;;8.86;100.00;100287.59;5054108;28;20025;-78
2021/04/29 01:23:52;;;;;;;17.42;9.75;;;;;;;8.81;100.00;100294.84;5052661;28;20440;-77
2021/04/29 01:26:30;;;;;;;22.63;11.05;;;;;;;8.64;100.00;100293.00;5050832;28;20047;-77
2021/04/29 01:28:57;;;;;;;18.98;9.73;;;;;;;8.41;100.00;100299.28;5057636;28;20044;-77
2021/04/29 01:31:27;;;;;;;22.08;11.60;;;;;;;8.28;100.00;100293.66;5052650;28;20104;-77
2021/04/29 01:33:53;;;;;;;18.42;11.45;;;;;;;8.23;100.00;100307.94;5056563;28;20228;-76
2021/04/29 01:36:20;;;;;;;17.25;12.45;;;;;;;8.07;100.00;100317.41;5057946;28;20127;-76
2021/04/29 01:38:46;;;;;;;25.08;13.23;;;;;;;8.08;100.00;100327.88;5051432;28;20021;-77
2021/04/29 01:41:11;;;;;;;25.63;13.02;;;;;;;8.11;100.00;100326.91;5057773;28;20068;-77
2021/04/29 01:43:37;;;;;;;21.45;13.10;;;;;;;7.98;100.00;100318.66;5051133;28;20063;-77
2021/04/29 01:46:04;;;;;;;18.52;12.27;;;;;;;7.90;100.00;100318.13;5060695;28;20045;-77
2021/04/29 01:48:30;;;;;;;20.65;13.18;;;;;;;7.90;100.00;100323.41;5058812;28;20033;-76
2021/04/29 01:50:56;;;;;;;20.90;12.05;;;;;;;7.77;100.00;100312.50;5050776;28;20029;-76
2021/04/29 01:53:23;;;;;;;26.00;12.90;;;;;;;7.69;100.00;100314.63;5062736;28;20036;-76
2021/04/29 01:55:49;;;;;;;24.65;13.80;;;;;;;7.57;100.00;100309.84;5050591;28;20035;-78
2021/04/29 01:58:14;;;;;;;18.15;12.88;;;;;;;7.41;100.00;100312.22;5054639;28;20376;-76
2021/04/29 02:00:40;;;;;;;22.25;13.88;;;;;;;7.37;100.00;100308.00;5053473;28;20032;-77
2021/04/29 02:03:05;;;;;;;22.50;13.10;;;;;;;7.31;100.00;100313.50;5051248;28;20493;-77
2021/04/29 02:05:30;;;;;;;22.00;12.80;;;;;;;7.27;100.00;100325.91;5055230;28;20025;-77
2021/04/29 02:07:57;;;;;;;22.17;14.13;;;;;;;7.24;100.00;100329.53;5060082;28;20052;-77
2021/04/29 02:10:23;;;;;;;24.50;15.40;;;;;;;7.24;100.00;100321.63;5055031;28;20020;-77
2021/04/29 02:12:53;;;;;;;23.67;13.27;;;;;;;7.25;100.00;100335.63;5054570;28;20495;-77
2021/04/29 02:15:19;;;;;;;26.65;15.02;;;;;;;7.32;100.00;100344.13;5059429;28;20074;-77
2021/04/29 02:17:55;;;;;;;21.25;12.75;;;;;;;7.26;100.00;100338.19;5059696;28;20028;-77
2021/04/29 02:20:23;;;;;;;21.70;13.20;;;;;;;7.25;100.00;100317.22;5059969;28;20060;-77
2021/04/29 02:22:50;;;;;;;27.70;14.68;;;;;;;7.26;100.00;100316.31;5054613;28;20408;-77
2021/04/29 02:25:23;;;;;;;26.52;14.25;;;;;;;7.16;100.00;100307.94;5056473;28;20036;-78
2021/04/29 02:27:49;;;;;;;29.33;16.48;;;;;;;7.13;100.00;100305.44;5056810;28;20037;-77
2021/04/29 02:30:16;;;;;;;28.42;15.93;;;;;;;7.16;100.00;100296.56;5061260;28;20025;-78
2021/04/29 02:32:42;;;;;;;25.67;15.48;;;;;;;7.09;100.00;100290.69;5054969;28;20028;-77
2021/04/29 02:35:11;;;;;;;25.92;16.40;;;;;;;7.14;100.00;100287.88;5060239;28;20094;-77
2021/04/29 02:37:38;;;;;;;25.90;15.88;;;;;;;7.17;100.00;100274.63;5060439;28;20923;-77
2021/04/29 02:40:05;;;;;;;34.75;17.85;;;;;;;7.15;100.00;100266.81;5056118;28;20556;-77
2021/04/29 02:42:31;;;;;;;28.20;17.23;;;;;;;7.20;100.00;100249.06;5057698;28;20044;-77
2021/04/29 02:44:57;;;;;;;26.08;16.92;;;;;;;7.20;100.00;100248.22;5058732;28;20037;-78
2021/04/29 02:47:23;;;;;;;29.98;18.83;;;;;;;7.27;100.00;100247.03;5064008;28;20031;-77
2021/04/29 02:49:48;;;;;;;29.60;16.75;;;;;;;7.25;100.00;100247.13;5062495;28;20028;-78
2021/04/29 02:52:13;;;;;;;33.92;17.30;;;;;;;7.23;100.00;100234.97;5061560;28;20025;-77
2021/04/29 02:54:39;;;;;;;35.60;17.42;;;;;;;7.27;100.00;100229.50;5063227;28;20036;-78
2021/04/29 02:57:05;;;;;;;27.98;16.23;;;;;;;7.24;100.00;100232.28;5055062;28;20041;-77
2021/04/29 02:59:30;;;;;;;31.83;16.13;;;;;;;7.24;100.00;100218.28;5064255;28;20166;-77
2021/04/29 03:01:56;;;;;;;31.55;17.27;;;;;;;7.22;100.00;100214.84;5061394;28;20033;-78
2021/04/29 03:04:21;;;;;;;34.90;17.38;;;;;;;7.19;100.00;100214.97;5060934;28;20051;-78
2021/04/29 03:06:46;;;;;;;34.00;17.13;;;;;;;7.13;100.00;100200.31;5057055;28;20115;-78
2021/04/29 03:09:12;;;;;;;29.00;17.15;;;;;;;7.14;100.00;100207.28;5060650;28;20045;-77
2021/04/29 03:11:37;;;;;;;35.33;16.45;;;;;;;7.12;100.00;100203.84;5056581;28;20056;-77
2021/04/29 03:14:03;;;;;;;29.13;16.85;;;;;;;7.10;100.00;100199.56;5056938;28;20025;-78
2021/04/29 03:16:29;;;;;;;25.88;16.08;;;;;;;7.12;100.00;100198.59;5057459;28;20136;-78
2021/04/29 03:18:54;;;;;;;34.95;16.33;;;;;;;7.16;100.00;100194.06;5062968;28;20032;-77
2021/04/29 03:21:19;;;;;;;28.38;16.48;;;;;;;7.11;100.00;100189.00;5059069;28;20025;-77
2021/04/29 03:23:45;;;;;;;27.65;16.25;;;;;;;7.19;100.00;100201.84;5061910;28;20124;-77
2021/04/29 03:26:13;;;;;;;34.05;16.33;;;;;;;7.22;100.00;100202.53;5056863;28;20453;-78
2021/04/29 03:28:41;;;;;;;29.55;16.70;;;;;;;7.28;100.00;100201.47;5063196;28;20039;-77
2021/04/29 03:31:06;;;;;;;30.35;16.85;;;;;;;7.30;100.00;100199.63;5060302;28;20021;-78
2021/04/29 03:33:31;;;;;;;28.05;15.40;;;;;;;7.28;100.00;100198.84;5063370;28;20028;-78
2021/04/29 03:35:56;;;;;;;24.80;15.60;;;;;;;7.30;100.00;100193.50;5062742;28;20036;-78
2021/04/29 03:38:22;;;;;;;28.00;16.83;;;;;;;7.34;100.00;100195.94;5073327;28;20068;-78
2021/04/29 03:40:47;;;;;;;26.65;16.17;;;;;;;7.36;100.00;100193.25;5064722;28;20029;-78
2021/04/29 03:43:12;;;;;;;33.08;16.63;;;;;;;7.34;100.00;100190.69;5062405;28;20028;-78
2021/04/29 03:45:38;;;;;;;32.60;16.25;;;;;;;7.40;100.00;100198.31;5060116;28;20092;-78
2021/04/29 03:48:04;;;;;;;24.98;14.25;;;;;;;7.43;100.00;100197.31;5060603;28;20036;-78
2021/04/29 03:50:30;;;;;;;33.17;17.23;;;;;;;7.41;100.00;100204.44;5054509;28;20766;-78
2021/04/29 03:52:55;;;;;;;23.75;15.73;;;;;;;7.41;100.00;100205.28;5055430;28;20048;-77
2021/04/29 03:55:21;;;;;;;25.52;16.02;;;;;;;7.44;100.00;100206.94;5066328;28;20664;-78
2021/04/29 03:57:46;;;;;;;30.13;16.58;;;;;;;7.42;100.00;100208.75;5062752;28;20480;-78
2021/04/29 04:00:12;;;;;;;27.40;16.15;;;;;;;7.39;100.00;100201.88;5056368;28;20048;-78
2021/04/29 04:02:38;;;;;;;31.83;18.33;;;;;;;7.39;100.00;100215.03;5063693;28;20032;-78
2021/04/29 04:05:05;;;;;;;26.00;15.18;;;;;;;7.40;100.00;100211.47;5057005;28;20408;-78
2021/04/29 04:07:30;;;;;;;34.03;17.77;;;;;;;7.39;100.00;100219.44;5064433;28;20043;-78
2021/04/29 04:09:55;;;;;;;23.02;14.68;;;;;;;7.45;100.00;100229.69;5058193;28;20024;-78
2021/04/29 04:12:21;;;;;;;26.90;14.50;;;;;;;7.47;100.00;100227.84;5057944;28;20031;-76
2021/04/29 04:14:46;;;;;;;30.23;15.10;;;;;;;7.47;100.00;100228.69;5059737;28;20028;-77
2021/04/29 04:17:11;;;;;;;29.42;15.15;;;;;;;7.44;100.00;100222.72;5057499;28;20389;-76
2021/04/29 04:19:36;;;;;;;26.33;16.38;;;;;;;7.44;100.00;100225.34;5057302;28;20016;-77
2021/04/29 04:22:02;;;;;;;27.60;16.10;;;;;;;7.41;100.00;100213.16;5054409;28;20083;-76
2021/04/29 04:24:27;;;;;;;31.10;15.73;;;;;;;7.47;100.00;100219.94;5057806;28;20029;-77
2021/04/29 04:26:52;;;;;;;23.45;13.52;;;;;;;7.39;100.00;100222.91;5056775;28;20404;-77
2021/04/29 04:29:18;;;;;;;26.10;14.88;;;;;;;7.39;100.00;100222.06;5060724;28;20029;-78
2021/04/29 04:31:43;;;;;;;26.67;15.38;;;;;;;7.40;100.00;100224.59;5057666;28;20024;-78
2021/04/29 04:34:08;;;;;;;32.83;16.05;;;;;;;7.40;100.00;100229.88;5060590;28;20033;-78
2021/04/29 04:36:34;;;;;;;28.85;15.05;;;;;;;7.40;100.00;100229.00;5065938;28;20056;-78
2021/04/29 04:39:01;;;;;;;26.60;14.30;;;;;;;7.43;100.00;100229.75;5057314;28;20045;-78
2021/04/29 04:41:27;;;;;;;32.22;15.80;;;;;;;7.39;100.00;100230.78;5061390;28;20040;-77
2021/04/29 04:43:52;;;;;;;28.15;16.08;;;;;;;7.41;100.00;100238.59;5055265;28;20029;-77
2021/04/29 04:46:18;;;;;;;29.40;15.52;;;;;;;7.50;100.00;100239.09;5058115;28;20028;-77
2021/04/29 04:48:43;;;;;;;27.38;16.10;;;;;;;7.48;100.00;100238.31;5055620;28;20439;-77
2021/04/29 04:51:09;;;;;;;24.73;14.88;;;;;;;7.50;100.00;100243.50;5055961;28;20021;-78
2021/04/29 04:53:34;;;;;;;28.13;15.43;;;;;;;7.53;100.00;100233.72;5053540;28;20401;-77
2021/04/29 04:55:59;;;;;;;21.95;14.07;;;;;;;7.48;100.00;100237.44;5057916;28;20092;-77
2021/04/29 04:58:25;;;;;;;27.15;15.75;;;;;;;7.56;100.00;100235.34;5059018;28;20078;-77
2021/04/29 05:00:50;;;;;;;27.00;15.43;;;;;;;7.58;100.00;100237.91;5054011;28;20151;-77
2021/04/29 05:03:19;;;;;;;28.33;16.02;;;;;;;7.57;100.00;100239.69;5055736;28;20111;-77
2021/04/29 05:05:44;;;;;;;24.23;14.85;;;;;;;7.65;100.00;100240.22;5058732;28;20031;-78
2021/04/29 05:08:11;;;;;;;28.92;15.35;;;;;;;7.56;100.00;100240.59;5057601;28;20033;-78
2021/04/29 05:10:37;;;;;;;23.52;15.20;;;;;;;7.57;100.00;100234.41;5058095;28;20027;-78
2021/04/29 05:13:03;;;;;;;23.02;14.13;;;;;;;7.45;100.00;100237.56;5058097;28;20463;-78
2021/04/29 05:15:30;;;;;;;25.13;15.18;;;;;;;7.54;100.00;100229.31;5056313;28;20033;-77
2021/04/29 05:17:55;;;;;;;26.52;14.43;;;;;;;7.50;100.00;100243.50;5047949;28;20443;-77
2021/04/29 05:20:20;;;;;;;26.73;15.32;;;;;;;7.49;100.00;100233.91;5052371;28;20040;-77
2021/04/29 05:22:47;;;;;;;21.83;14.48;;;;;;;7.51;100.00;100232.91;5062938;28;20020;-77
2021/04/29 05:25:12;;;;;;;24.58;14.23;;;;;;;7.52;100.00;100224.09;5057936;28;20036;-77
2021/04/29 05:27:38;;;;;;;33.22;16.00;;;;;;;7.55;100.00;100233.63;5055444;28;20040;-77
2021/04/29 05:30:05;;;;;;;28.73;15.70;;;;;;;7.57;100.00;100250.19;5054027;28;20197;-77
2021/04/29 05:32:30;;;;;;;25.45;15.43;;;;;;;7.55;100.00;100233.63;5048805;28;20029;-78
2021/04/29 05:34:55;;;;;;;23.35;14.25;;;;;;;7.58;100.00;100241.41;5055137;28;20043;-77
2021/04/29 05:37:21;;;;;;;25.75;14.48;;;;;;;7.56;100.00;100250.28;5056120;28;20055;-77
2021/04/29 05:39:46;;;;;;;26.02;15.13;;;;;;;7.43;100.00;100245.53;5044982;28;20488;-77
2021/04/29 05:42:11;;;;;;;24.35;14.82;;;;;;;7.41;100.00;100251.75;5050718;28;20040;-77
2021/04/29 05:44:36;;;;;;;25.58;14.43;;;;;;;7.49;100.00;100255.78;5050861;28;20024;-78
2021/04/29 05:47:02;;;;;;;26.80;15.48;;;;;;;7.51;100.00;100253.09;5055314;28;20040;-77
2021/04/29 05:49:27;;;;;;;27.05;14.45;;;;;;;7.60;100.00;100246.59;5056652;28;20059;-78
2021/04/29 05:51:53;;;;;;;26.42;12.65;;;;;;;7.58;100.00;100253.69;5049101;28;20043;-78
2021/04/29 05:54:18;;;;;;;21.23;13.35;;;;;;;7.53;100.00;100252.13;5051129;28;20040;-77
2021/04/29 05:56:43;;;;;;;27.92;14.13;;;;;;;7.56;100.00;100261.66;5050101;28;20027;-78
2021/04/29 05:59:09;;;;;;;27.95;14.65;;;;;;;7.59;100.00;100272.06;5052329;28;20049;-78
2021/04/29 06:01:34;;;;;;;27.13;14.50;;;;;;;7.60;100.00;100280.78;5049349;28;20032;-78
2021/04/29 06:03:59;;;;;;;32.60;14.85;;;;;;;7.62;100.00;100281.56;5047301;28;20449;-78
2021/04/29 06:06:25;;;;;;;19.40;13.25;;;;;;;7.60;100.00;100279.00;5053566;28;20034;-78
2021/04/29 06:08:51;;;;;;;26.92;14.55;;;;;;;7.65;100.00;100290.19;5037507;28;20033;-78
2021/04/29 06:11:17;;;;;;;23.67;13.82;;;;;;;7.61;100.00;100293.88;5051104;28;20027;-77
2021/04/29 06:13:44;;;;;;;23.42;14.65;;;;;;;7.58;100.00;100299.28;5047174;28;20029;-76
2021/04/29 06:16:09;;;;;;;27.45;15.18;;;;;;;7.62;100.00;100300.84;5050769;28;20033;-78
2021/04/29 06:18:35;;;;;;;24.35;14.65;;;;;;;7.67;100.00;100298.88;5048774;28;20432;-78
2021/04/29 06:21:00;;;;;;;32.42;15.82;;;;;;;7.63;100.00;100296.44;5048328;28;20040;-76
2021/04/29 06:23:25;;;;;;;21.33;13.95;;;;;;;7.62;100.00;100300.84;5050366;28;21653;-77
2021/04/29 06:25:51;;;;;;;25.73;13.10;;;;;;;7.66;100.00;100301.56;5055223;28;20048;-78
2021/04/29 06:28:16;;;;;;;27.88;13.90;;;;;;;7.67;100.00;100293.63;5050149;28;20032;-78
2021/04/29 06:30:42;;;;;;;19.80;12.13;;;;;;;7.66;100.00;100306.84;5014917;28;20748;-78
2021/04/29 06:33:08;;;;;;;29.05;14.27;;;;;;;7.61;100.00;100288.59;5045601;28;20423;-78
2021/04/29 06:35:34;;;;;;;24.77;13.80;;;;;;;7.55;100.00;100302.00;5049151;28;20503;-77
2021/04/29 06:37:59;;;;;;;23.15;12.52;;;;;;;7.55;100.00;100303.78;5056066;28;20037;-78
2021/04/29 06:40:25;;;;;;;25.38;12.80;;;;;;;7.53;100.00;100315.22;5052045;28;20025;-78
2021/04/29 06:42:50;;;;;;;29.60;14.80;;;;;;;7.56;100.00;100318.66;5047740;28;20098;-78
2021/04/29 06:45:16;;;;;;;30.15;12.88;;;;;;;7.52;100.00;100318.75;5048481;28;20074;-78
2021/04/29 06:47:41;;;;;;;22.23;13.05;;;;;;;7.62;100.00;100318.38;5049664;28;20039;-80
2021/04/29 06:50:07;;;;;;;22.38;12.70;;;;;;;7.52;100.00;100326.66;5048805;28;20029;-78
2021/04/29 06:52:32;;;;;;;22.95;11.95;;;;;;;7.53;100.00;100320.50;5056927;28;20025;-78
2021/04/29 06:54:57;;;;;;;19.65;12.27;;;;;;;7.59;100.00;100329.91;5053353;28;20570;-78
2021/04/29 06:57:23;;;;;;;25.13;13.23;;;;;;;7.68;100.00;100328.66;5052598;28;20062;-77
2021/04/29 06:59:48;;;;;;;29.38;13.55;;;;;;;7.52;100.00;100334.53;5049808;28;20444;-77
2021/04/29 07:02:14;;;;;;;19.05;12.02;;;;;;;7.47;100.00;100330.38;5049895;28;20028;-78
2021/04/29 07:04:39;;;;;;;21.83;13.00;;;;;;;7.54;100.00;100339.75;5043358;28;20025;-76
2021/04/29 07:07:04;;;;;;;21.98;13.40;;;;;;;7.48;100.00;100338.22;5050418;28;20031;-76
2021/04/29 07:09:30;;;;;;;21.70;13.25;;;;;;;7.47;100.00;100336.50;5047130;28;20106;-77
2021/04/29 07:11:56;;;;;;;18.92;12.55;;;;;;;7.44;100.00;100335.78;5045930;28;20111;-77
2021/04/29 07:14:21;;;;;;;24.85;13.48;;;;;;;7.50;100.00;100339.00;5041999;28;20660;-77
2021/04/29 07:16:47;;;;;;;26.80;13.10;;;;;;;7.46;100.00;100334.78;5047251;28;20037;-78
2021/04/29 07:19:13;;;;;;;21.90;12.27;;;;;;;7.41;100.00;100333.25;5047983;28;20033;-78
2021/04/29 07:21:38;;;;;;;21.27;12.65;;;;;;;7.49;100.00;100339.09;5050185;28;20029;-77
2021/04/29 07:24:04;;;;;;;17.88;11.88;;;;;;;7.43;100.00;100340.19;5051180;28;20037;-77
2021/04/29 07:26:29;;;;;;;20.45;12.18;;;;;;;7.55;100.00;100330.94;5056106;28;20461;-77
2021/04/29 07:28:54;;;;;;;19.80;12.60;;;;;;;7.52;100.00;100331.06;5050769;28;20380;-78
2021/04/29 07:31:19;;;;;;;20.35;11.77;;;;;;;7.51;100.00;100334.59;5050239;28;20120;-77
2021/04/29 07:33:45;;;;;;;24.50;13.48;;;;;;;7.50;100.00;100343.41;5052575;28;20392;-76
2021/04/29 07:36:10;;;;;;;19.02;12.02;;;;;;;7.43;100.00;100344.56;5050221;28;20472;-76
2021/04/29 07:38:36;;;;;;;18.95;11.63;;;;;;;7.41;100.00;100347.25;5052031;28;20070;-77
2021/04/29 07:41:02;;;;;;;17.25;11.15;;;;;;;7.41;100.00;100351.66;5048076;28;20025;-78
2021/04/29 07:43:27;;;;;;;17.85;12.30;;;;;;;7.41;100.00;100363.03;5055061;28;20054;-77
2021/04/29 07:45:53;;;;;;;24.13;11.77;;;;;;;7.37;100.00;100356.19;5046179;28;20031;-77
2021/04/29 07:48:18;;;;;;;20.73;12.23;;;;;;;7.46;100.00;100365.50;5055553;28;20046;-77
2021/04/29 07:50:43;;;;;;;22.50;12.73;;;;;;;7.58;100.00;100361.50;5053912;28;20028;-78
2021/04/29 07:53:09;;;;;;;20.65;11.80;;;;;;;7.48;100.00;100366.28;5056109;28;20576;-78
2021/04/29 07:55:35;;;;;;;18.80;12.35;;;;;;;7.43;100.00;100369.09;5057143;28;20035;-78
2021/04/29 07:58:03;;;;;;;23.23;13.10;;;;;;;7.38;100.00;100368.44;5056395;28;20119;-77
2021/04/29 08:00:28;;;;;;;18.25;12.48;;;;;;;7.33;100.00;100373.00;5047595;28;20071;-77
2021/04/29 08:02:53;;;;;;;20.48;13.13;;;;;;;7.37;100.00;100371.94;5055524;28;20033;-78
2021/04/29 08:05:19;;;;;;;19.35;12.82;;;;;;;7.35;100.00;100375.56;5047785;28;20046;-77
2021/04/29 08:07:45;;;;;;;20.27;12.98;;;;;;;7.25;100.00;100380.31;5054686;28;20036;-78
2021/04/29 08:10:12;;;;;;;20.40;12.52;;;;;;;7.31;100.00;100387.13;5053762;28;20032;-78
2021/04/29 08:12:37;;;;;;;23.58;13.60;;;;;;;7.25;100.00;100398.72;5045821;28;20029;-77
2021/04/29 08:15:04;;;;;;;25.45;13.60;;;;;;;7.21;100.00;100403.22;5040330;28;20421;-77
2021/04/29 08:17:30;;;;;;;23.25;12.30;;;;;;;7.25;100.00;100396.09;5049846;28;20029;-78
2021/04/29 08:19:56;;;;;;;20.45;12.90;;;;;;;7.23;100.00;100409.31;5053310;28;20039;-77
2021/04/29 08:22:23;;;;;;;24.25;14.38;;;;;;;7.10;100.00;100415.06;5042131;28;20032;-77
2021/04/29 08:24:48;;;;;;;29.13;13.65;;;;;;;7.08;100.00;100417.75;5047807;28;20516;-77
2021/04/29 08:27:14;;;;;;;21.05;13.00;;;;;;;6.99;100.00;100420.72;5046517;28;20044;-78
2021/04/29 08:29:39;;;;;;;19.88;14.00;;;;;;;7.00;100.00;100420.66;5051792;28;20052;-77
2021/04/29 08:32:05;;;;;;;20.48;13.52;;;;;;;7.01;100.00;100419.72;5052601;28;21320;-77
2021/04/29 08:34:30;;;;;;;19.30;13.35;;;;;;;6.94;100.00;100431.38;5050790;28;20037;-77
2021/04/29 08:36:55;;;;;;;19.83;12.60;;;;;;;6.86;100.00;100437.81;5047577;28;20541;-77
2021/04/29 08:39:21;;;;;;;19.25;13.52;;;;;;;6.74;100.00;100428.59;5053760;28;20027;-78
2021/04/29 08:41:46;;;;;;;23.50;12.75;;;;;;;6.65;100.00;100435.03;5051653;28;20128;-78
2021/04/29 08:44:11;;;;;;;20.67;13.10;;;;;;;6.64;100.00;100445.59;5040891;28;20033;-78
2021/04/29 08:46:37;;;;;;;25.27;13.95;;;;;;;6.59;100.00;100443.13;5041776;28;20037;-79
2021/04/29 08:49:02;;;;;;;18.77;12.73;;;;;;;6.57;100.00;100450.19;5053223;28;20024;-78
2021/04/29 08:51:28;;;;;;;18.73;12.55;;;;;;;6.56;100.00;100451.09;5051779;28;20044;-77
2021/04/29 08:53:55;;;;;;;20.27;13.60;;;;;;;6.55;100.00;100461.66;5047172;28;20040;-77
2021/04/29 08:56:23;;;;;;;20.13;12.25;;;;;;;6.56;100.00;100469.47;5043985;28;20035;-77
2021/04/29 08:58:50;;;;;;;21.17;13.40;;;;;;;6.40;100.00;100471.75;5041947;28;20149;-77
2021/04/29 09:01:16;;;;;;;23.20;13.93;;;;;;;6.38;100.00;100475.38;5039506;28;20480;-77
2021/04/29 09:03:41;;;;;;;25.98;15.07;;;;;;;6.37;100.00;100477.09;5038104;28;20048;-78
2021/04/29 09:06:07;;;;;;;25.45;15.27;;;;;;;6.32;100.00;100489.53;5037156;28;20072;-78
2021/04/29 09:08:37;;;;;;;28.17;16.63;;;;;;;6.39;100.00;100484.94;5038724;28;20037;-78
2021/04/29 09:11:17;;;;;;;21.90;14.00;;;;;;;6.42;100.00;100482.19;5034811;28;20017;-77
2021/04/29 09:13:57;;;;;;;24.77;13.98;;;;;;;6.35;100.00;100504.31;5038987;28;20033;-78
2021/04/29 09:16:23;;;;;;;18.02;11.93;;;;;;;6.37;100.00;100505.97;5039567;28;20040;-78
2021/04/29 09:18:49;;;;;;;21.88;11.68;;;;;;;6.35;100.00;100504.31;5040142;28;20396;-78
2021/04/29 09:21:15;;;;;;;20.05;12.18;;;;;;;6.34;100.00;100508.72;5043229;28;20163;-78
2021/04/29 09:23:45;;;;;;;25.15;13.73;;;;;;;6.36;100.00;100513.91;5034570;28;20440;-77
2021/04/29 09:26:17;;;;;;;24.10;13.50;;;;;;;6.39;100.00;100516.44;5048162;28;20874;-78
2021/04/29 09:28:45;;;;;;;17.15;10.63;;;;;;;6.21;100.00;100523.97;5036146;28;20127;-77
2021/04/29 09:31:17;;;;;;;24.20;13.02;;;;;;;6.18;100.00;100531.13;5049911;28;20338;-77
2021/04/29 09:33:47;;;;;;;27.52;14.10;;;;;;;6.21;100.00;100533.63;5046996;28;20135;-77
2021/04/29 09:36:27;;;;;;;20.05;12.93;;;;;;;6.18;100.00;100541.63;5046190;28;20755;-77
2021/04/29 09:38:58;;;;;;;30.00;13.63;;;;;;;6.11;100.00;100540.91;5044103;28;20043;-77
2021/04/29 09:41:47;;;;;;;23.95;14.57;;;;;;;6.14;100.00;100545.22;5048356;28;20115;-77
2021/04/29 09:44:21;;;;;;;21.05;9.77;;;;;;;5.96;100.00;100544.00;5044707;28;20028;-78
2021/04/29 09:46:49;;;;;;;24.40;12.70;;;;;;;5.99;100.00;100558.81;5045611;28;20119;-78
2021/04/29 09:49:26;;;;;;;15.27;9.15;;;;;;;5.89;100.00;100556.44;5047724;28;20338;-77
2021/04/29 09:51:54;;;;;;;23.70;12.45;;;;;;;5.90;100.00;100568.63;5036922;28;20025;-77
2021/04/29 09:54:24;;;;;;;23.90;14.50;;;;;;;5.90;100.00;100573.88;5032499;28;20040;-77
2021/04/29 09:56:56;;;;;;;21.50;13.20;;;;;;;5.92;100.00;100576.47;5046360;28;20036;-77
2021/04/29 09:59:21;;;;;;;16.33;10.40;;;;;;;5.85;100.00;100572.28;5040245;28;20045;-77
2021/04/29 10:01:47;;;;;;;23.27;13.80;;;;;;;5.96;100.00;100572.88;5041586;28;20090;-77
2021/04/29 10:04:13;;;;;;;16.02;10.52;;;;;;;5.89;100.00;100585.28;5043972;28;20106;-77
2021/04/29 10:06:38;;;;;;;24.55;13.55;;;;;;;5.89;100.00;100585.28;5042300;28;20049;-76
2021/04/29 10:09:04;;;;;;;27.45;14.60;;;;;;;5.95;100.00;100587.75;5046438;28;20132;-78
2021/04/29 10:11:30;;;;;;;21.08;10.73;;;;;;;5.86;100.00;100598.47;5042277;28;20032;-77
2021/04/29 10:13:58;;;;;;;28.88;12.80;;;;;;;5.87;100.00;100602.84;5043925;28;20162;-77
2021/04/29 10:16:28;;;;;;;23.75;13.05;;;;;;;5.92;100.00;100602.72;5049474;28;20469;-77
2021/04/29 10:18:55;;;;;;;21.58;12.75;;;;;;;5.94;100.00;100614.91;5046305;28;20036;-77
2021/04/29 10:21:21;;;;;;;22.45;14.40;;;;;;;5.91;100.00;100609.72;5044522;28;20021;-78
2021/04/29 10:23:47;;;;;;;22.05;11.05;;;;;;;5.85;100.00;100620.38;5044040;28;20055;-76
2021/04/29 10:26:24;;;;;;;21.75;12.18;;;;;;;5.85;100.00;100616.88;5044163;28;20333;-77
2021/04/29 10:28:56;;;;;;;24.08;13.48;;;;;;;5.99;100.00;100621.78;5044937;28;20037;-77
2021/04/29 10:31:28;;;;;;;24.15;13.15;;;;;;;6.13;100.00;100622.25;5042209;28;20033;-77
2021/04/29 10:34:02;;;;;;;21.10;12.98;;;;;;;6.13;100.00;100624.88;5043044;28;20055;-77
2021/04/29 10:36:39;;;;;;;26.27;14.45;;;;;;;6.24;100.00;100633.28;5045323;28;20039;-77
2021/04/29 10:39:12;;;;;;;25.38;12.57;;;;;;;6.14;100.00;100637.06;5043568;28;20040;-77
2021/04/29 10:41:38;;;;;;;20.77;11.20;;;;;;;6.12;100.00;100650.22;5048095;28;20029;-77
2021/04/29 10:44:12;;;;;;;25.70;14.23;;;;;;;6.33;100.00;100648.75;5040157;28;20037;-77
2021/04/29 10:46:39;;;;;;;25.30;12.73;;;;;;;6.32;100.00;100651.41;5046701;28;20033;-77
2021/04/29 10:49:05;;;;;;;28.33;15.70;;;;;;;6.36;100.00;100659.13;5047493;28;20025;-77
2021/04/29 10:51:50;;;;;;;32.88;13.60;;;;;;;6.33;100.00;100659.25;5045838;28;20280;-77
2021/04/29 10:54:23;;;;;;;23.67;11.48;;;;;;;6.31;100.00;100655.78;5042893;28;20116;-77
2021/04/29 10:57:11;;;;;;;21.90;12.80;;;;;;;6.29;100.00;100657.63;5016987;28;20033;-77
2021/04/29 10:59:41;;;;;;;25.75;13.90;;;;;;;6.47;100.00;100664.06;5055049;28;20044;-77
2021/04/29 11:02:20;;;;;;;23.35;11.60;;;;;;;6.21;100.00;100665.69;5052129;28;20387;-77
2021/04/29 11:04:45;;;;;;;26.27;11.63;;;;;;;6.29;100.00;100665.50;5051723;28;20021;-76
2021/04/29 11:07:13;;;;;;;27.17;12.73;;;;;;;6.43;100.00;100667.72;5054512;28;20094;-77
2021/04/29 11:09:39;;;;;;;26.27;9.95;;;;;;;6.26;100.00;100676.06;5049016;28;20056;-77
2021/04/29 11:12:08;;;;;;;23.83;11.73;;;;;;;6.19;100.00;100679.78;5060194;28;20025;-79